Time;durP1;ratioP1;P1;durP2;ratioP2;P2;SDS_P1;SDS_P2;PMS_P1;PMS_P2;Temp;Humidity;BMP_temperature;BMP_pressure;BME280_temperature;BME280_humidity;BME280_pressure;Samples;Min_cycle;Max_cycle;Signal;HPM_P1;HPM_P2
2021/08/17 00:00:10;;;;;;;7.43;4.00;;;16.10;99.90;;;;;;5031754;28;20201;-77
2021/08/17 00:02:36;;;;;;;7.80;3.23;;;16.00;99.90;;;;;;5032918;28;20212;-77
2021/08/17 00:05:03;;;;;;;8.70;3.60;;;16.00;99.90;;;;;;5036747;28;20666;-77
2021/08/17 00:07:30;;;;;;;7.00;4.00;;;16.00;99.90;;;;;;5032118;28;21079;-77
2021/08/17 00:09:55;;;;;;;9.47;3.53;;;15.90;99.90;;;;;;5032304;28;20614;-77
2021/08/17 00:12:21;;;;;;;6.40;4.03;;;15.90;99.90;;;;;;5014984;28;20564;-77
2021/08/17 00:14:48;;;;;;;8.00;4.07;;;15.90;99.90;;;;;;5031948;28;20200;-77
2021/08/17 00:17:14;;;;;;;6.63;4.50;;;15.90;99.90;;;;;;5031866;28;20663;-78
2021/08/17 00:19:40;;;;;;;8.30;4.50;;;15.80;99.90;;;;;;5032194;28;20727;-77
2021/08/17 00:22:07;;;;;;;9.53;4.90;;;15.80;99.90;;;;;;5031042;28;20177;-77
2021/08/17 00:24:34;;;;;;;9.25;5.25;;;15.80;99.90;;;;;;5031350;28;21187;-77
2021/08/17 00:27:00;;;;;;;14.25;5.88;;;15.80;99.90;;;;;;5031599;28;20192;-77
2021/08/17 00:29:26;;;;;;;8.57;5.15;;;15.80;99.90;;;;;;5031951;28;20185;-77
2021/08/17 00:31:52;;;;;;;8.93;6.00;;;15.70;99.90;;;;;;5030873;28;20595;-77
2021/08/17 00:34:17;;;;;;;9.53;5.57;;;15.70;99.90;;;;;;5030468;28;20176;-77
2021/08/17 00:36:43;;;;;;;8.33;5.80;;;15.70;99.90;;;;;;5031773;28;20188;-77
2021/08/17 00:39:09;;;;;;;10.27;6.30;;;15.60;99.90;;;;;;5032152;28;20220;-77
2021/08/17 00:41:38;;;;;;;9.00;6.68;;;15.60;99.90;;;;;;5035536;28;20657;-77
2021/08/17 00:44:05;;;;;;;12.20;7.18;;;15.60;99.90;;;;;;5030490;28;20719;-77
2021/08/17 00:46:31;;;;;;;9.82;6.88;;;15.60;99.90;;;;;;5031410;28;20205;-77
2021/08/17 00:48:57;;;;;;;11.55;7.30;;;15.50;99.90;;;;;;5031900;28;20606;-77
2021/08/17 00:51:23;;;;;;;9.97;8.07;;;15.50;99.90;;;;;;5030422;28;20248;-77
2021/08/17 00:53:53;;;;;;;14.25;7.82;;;15.50;99.90;;;;;;5031805;28;20170;-77
2021/08/17 00:56:19;;;;;;;15.05;8.48;;;15.50;99.90;;;;;;5031210;28;20165;-77
2021/08/17 00:58:45;;;;;;;13.13;9.50;;;15.50;99.90;;;;;;5031675;28;20243;-77
2021/08/17 01:01:10;;;;;;;17.33;9.37;;;15.50;99.90;;;;;;5031539;28;20553;-77
2021/08/17 01:03:38;;;;;;;12.67;9.20;;;15.40;99.90;;;;;;5031714;28;20654;-77
2021/08/17 01:06:04;;;;;;;13.77;8.80;;;15.50;99.90;;;;;;5030911;28;20558;-77
2021/08/17 01:08:29;;;;;;;15.17;9.77;;;15.50;99.90;;;;;;5031571;28;20189;-77
2021/08/17 01:10:55;;;;;;;12.70;8.90;;;15.40;99.90;;;;;;5031510;28;20192;-78
2021/08/17 01:13:23;;;;;;;14.10;9.70;;;15.40;99.90;;;;;;5031413;28;20226;-77
2021/08/17 01:15:51;;;;;;;18.57;9.50;;;15.50;99.90;;;;;;5031354;28;20169;-77
2021/08/17 01:18:17;;;;;;;17.00;11.10;;;15.50;99.90;;;;;;5036840;28;20623;-77
2021/08/17 01:20:48;;;;;;;17.05;10.88;;;15.50;99.90;;;;;;5030432;28;20216;-77
2021/08/17 01:23:18;;;;;;;18.50;10.77;;;15.40;99.90;;;;;;5030025;28;20173;-77
2021/08/17 01:25:44;;;;;;;18.90;11.20;;;15.40;99.90;;;;;;4997086;28;20312;-77
2021/08/17 01:28:10;;;;;;;16.57;10.87;;;15.40;99.90;;;;;;5031181;28;20217;-77
2021/08/17 01:30:36;;;;;;;18.07;12.50;;;15.40;99.90;;;;;;5031706;28;20611;-77
2021/08/17 01:33:02;;;;;;;18.23;11.20;;;15.40;99.90;;;;;;5031832;28;20168;-78
2021/08/17 01:35:28;;;;;;;18.40;11.75;;;15.40;99.90;;;;;;5054903;23;20214;-81
2021/08/17 01:37:54;;;;;;;18.25;11.65;;;15.40;99.90;;;;;;5033982;28;20212;-81
2021/08/17 01:40:20;;;;;;;20.60;12.23;;;15.40;99.90;;;;;;5023233;28;20165;-81
2021/08/17 01:42:48;;;;;;;17.53;12.10;;;15.40;99.90;;;;;;5035864;28;20715;-81
2021/08/17 01:45:15;;;;;;;23.90;13.15;;;15.50;99.90;;;;;;5039017;28;20227;-81
2021/08/17 01:47:41;;;;;;;23.80;14.02;;;15.50;99.90;;;;;;5037341;28;20248;-81
2021/08/17 01:50:07;;;;;;;19.93;12.70;;;15.50;99.90;;;;;;5055366;28;20233;-81
2021/08/17 01:52:33;;;;;;;19.75;12.38;;;15.50;99.90;;;;;;5055134;28;20569;-81
2021/08/17 01:54:59;;;;;;;22.27;13.80;;;15.50;99.90;;;;;;5036890;28;20169;-81
2021/08/17 01:57:25;;;;;;;23.17;13.50;;;15.50;99.90;;;;;;5054926;28;20172;-81
2021/08/17 01:59:51;;;;;;;20.13;13.10;;;15.50;99.90;;;;;;5037071;28;20927;-81
2021/08/17 02:02:17;;;;;;;17.63;12.73;;;15.60;99.90;;;;;;5020578;28;20575;-81
2021/08/17 02:04:42;;;;;;;18.77;11.93;;;15.60;99.90;;;;;;5036801;28;20630;-81
2021/08/17 02:07:08;;;;;;;23.57;13.93;;;15.60;99.90;;;;;;5054960;28;20238;-80
2021/08/17 02:09:34;;;;;;;20.20;14.30;;;15.60;99.90;;;;;;5020833;28;20620;-81
2021/08/17 02:11:59;;;;;;;19.53;13.10;;;15.60;99.90;;;;;;5055109;28;20161;-81
2021/08/17 02:14:25;;;;;;;23.97;14.87;;;15.60;99.90;;;;;;5054938;28;20161;-80
2021/08/17 02:16:51;;;;;;;20.07;12.27;;;15.60;99.90;;;;;;5062466;28;20181;-80
2021/08/17 02:19:17;;;;;;;20.45;14.18;;;15.60;99.90;;;;;;5055788;28;20192;-80
2021/08/17 02:21:43;;;;;;;23.13;14.30;;;15.60;99.90;;;;;;5021455;28;20552;-80
2021/08/17 02:24:09;;;;;;;25.77;14.90;;;15.60;99.90;;;;;;5054662;28;20579;-81
2021/08/17 02:26:35;;;;;;;27.77;15.17;;;15.60;99.90;;;;;;5020263;28;20205;-80
2021/08/17 02:29:00;;;;;;;20.30;14.23;;;15.60;99.90;;;;;;5055544;28;20563;-80
2021/08/17 02:31:26;;;;;;;24.13;15.60;;;15.60;99.90;;;;;;5047022;28;20535;-80
2021/08/17 02:33:52;;;;;;;20.93;14.57;;;15.60;99.90;;;;;;5055306;28;20571;-80
2021/08/17 02:36:17;;;;;;;25.10;14.97;;;15.60;99.90;;;;;;5024482;28;20251;-81
2021/08/17 02:38:43;;;;;;;22.33;14.63;;;15.50;99.90;;;;;;5034493;28;20530;-81
2021/08/17 02:41:09;;;;;;;22.43;14.70;;;15.50;99.90;;;;;;5016657;28;20188;-81
2021/08/17 02:43:35;;;;;;;24.90;16.83;;;15.50;99.90;;;;;;5016613;28;20170;-81
2021/08/17 02:46:01;;;;;;;26.40;16.27;;;15.50;99.90;;;;;;5033533;28;20628;-81
2021/08/17 02:48:26;;;;;;;25.03;16.90;;;15.50;99.90;;;;;;5033254;28;20706;-81
2021/08/17 02:50:52;;;;;;;22.23;14.77;;;15.50;99.90;;;;;;5034153;28;20536;-81
2021/08/17 02:53:18;;;;;;;21.30;14.70;;;15.50;99.90;;;;;;5004176;28;20929;-81
2021/08/17 02:55:44;;;;;;;24.43;15.77;;;15.40;99.90;;;;;;5033642;28;20203;-80
2021/08/17 02:58:10;;;;;;;25.00;15.20;;;15.40;99.90;;;;;;5016033;28;21107;-81
2021/08/17 03:00:39;;;;;;;24.70;15.07;;;15.50;99.90;;;;;;5016405;28;20579;-80
2021/08/17 03:03:06;;;;;;;21.92;14.52;;;15.40;99.90;;;;;;5033695;28;20579;-81
2021/08/17 03:05:32;;;;;;;20.40;14.60;;;15.40;99.90;;;;;;5015839;28;20272;-81
2021/08/17 03:08:02;;;;;;;22.10;15.70;;;15.40;99.90;;;;;;5016687;28;20228;-80
2021/08/17 03:10:28;;;;;;;22.55;15.23;;;15.40;99.90;;;;;;5016263;28;20186;-80
2021/08/17 03:12:54;;;;;;;23.20;14.40;;;15.40;99.90;;;;;;5000148;28;20189;-80
2021/08/17 03:15:20;;;;;;;22.33;14.70;;;15.40;99.90;;;;;;5033333;28;20201;-81
2021/08/17 03:17:46;;;;;;;20.85;14.38;;;15.40;99.90;;;;;;5016122;28;20170;-80
2021/08/17 03:20:13;;;;;;;19.93;14.03;;;15.40;99.90;;;;;;5027931;28;20188;-79
2021/08/17 03:22:39;;;;;;;22.83;14.80;;;15.30;99.90;;;;;;5045477;28;20579;-79
2021/08/17 03:25:07;;;;;;;23.08;13.80;;;15.30;99.90;;;;;;5029084;28;20599;-79
2021/08/17 03:27:34;;;;;;;21.43;13.93;;;15.40;99.90;;;;;;5023479;28;20616;-79
2021/08/17 03:30:00;;;;;;;21.67;14.68;;;15.30;99.90;;;;;;5041606;28;20682;-81
2021/08/17 03:32:26;;;;;;;20.10;13.17;;;15.40;99.90;;;;;;5045894;28;20166;-80
2021/08/17 03:34:52;;;;;;;27.97;15.13;;;15.40;99.90;;;;;;5035917;28;20679;-80
2021/08/17 03:37:19;;;;;;;24.17;15.17;;;15.30;99.90;;;;;;5059082;28;20706;-81
2021/08/17 03:39:46;;;;;;;21.55;14.50;;;15.30;99.90;;;;;;5044645;28;20606;-80
2021/08/17 03:42:13;;;;;;;28.10;16.02;;;15.30;99.90;;;;;;5064993;28;20514;-80
2021/08/17 03:44:38;;;;;;;24.80;15.35;;;15.20;99.90;;;;;;5070656;28;20179;-81
2021/08/17 03:47:04;;;;;;;23.10;15.60;;;15.30;99.90;;;;;;5048390;28;20192;-80
2021/08/17 03:49:30;;;;;;;20.90;14.40;;;15.30;99.90;;;;;;5065818;28;20172;-79
2021/08/17 03:51:55;;;;;;;21.33;13.33;;;15.20;99.90;;;;;;5038988;28;20164;-80
2021/08/17 03:54:21;;;;;;;24.30;14.83;;;15.20;99.90;;;;;;5029162;28;20223;-80
2021/08/17 03:56:47;;;;;;;24.27;14.83;;;15.20;99.90;;;;;;5069666;28;20199;-79
2021/08/17 03:59:12;;;;;;;19.80;12.30;;;15.20;99.90;;;;;;5060846;28;20188;-79
2021/08/17 04:01:38;;;;;;;23.33;14.82;;;15.20;99.90;;;;;;5062237;28;20224;-79
2021/08/17 04:04:04;;;;;;;24.93;13.70;;;15.20;99.90;;;;;;5075052;28;20203;-80
2021/08/17 04:06:30;;;;;;;19.93;14.00;;;15.20;99.90;;;;;;5056893;28;20207;-79
2021/08/17 04:08:55;;;;;;;22.77;14.60;;;15.30;99.90;;;;;;5055394;28;20224;-80
2021/08/17 04:11:21;;;;;;;19.60;12.13;;;15.30;99.90;;;;;;5044804;28;20652;-80
2021/08/17 04:13:47;;;;;;;22.10;14.80;;;15.30;99.90;;;;;;5049328;28;20183;-80
2021/08/17 04:16:12;;;;;;;24.10;15.03;;;15.30;99.90;;;;;;5050823;28;20640;-79
2021/08/17 04:18:38;;;;;;;25.23;15.20;;;15.30;99.90;;;;;;5058047;28;20220;-79
2021/08/17 04:21:04;;;;;;;21.97;13.07;;;15.30;99.90;;;;;;5075922;28;20172;-79
2021/08/17 04:23:29;;;;;;;18.50;13.10;;;15.40;99.90;;;;;;5042983;28;20195;-79
2021/08/17 04:25:55;;;;;;;22.93;15.10;;;15.40;99.90;;;;;;5058945;28;20700;-79
2021/08/17 04:28:21;;;;;;;22.17;13.93;;;15.40;99.90;;;;;;5075885;28;20181;-79
2021/08/17 04:30:46;;;;;;;21.57;13.77;;;15.50;99.90;;;;;;5076814;28;20204;-80
2021/08/17 04:33:13;;;;;;;22.17;12.80;;;15.50;99.90;;;;;;5066532;28;20551;-80
2021/08/17 04:35:39;;;;;;;20.03;15.07;;;15.60;99.90;;;;;;5055012;28;20619;-80
2021/08/17 04:38:07;;;;;;;19.13;13.10;;;15.60;99.90;;;;;;5074765;28;20177;-81
2021/08/17 04:40:33;;;;;;;22.80;14.98;;;15.60;99.90;;;;;;5049683;28;20165;-80
2021/08/17 04:42:59;;;;;;;20.00;12.73;;;15.70;99.90;;;;;;5057474;28;20185;-81
2021/08/17 04:45:26;;;;;;;20.93;14.07;;;15.80;99.90;;;;;;5053312;28;20738;-80
2021/08/17 04:47:52;;;;;;;19.20;13.03;;;15.80;99.90;;;;;;5036067;28;20169;-81
2021/08/17 04:50:19;;;;;;;21.70;14.32;;;15.90;99.90;;;;;;5034908;28;20577;-80
2021/08/17 04:52:46;;;;;;;22.13;14.60;;;15.90;99.90;;;;;;5033978;28;20671;-80
2021/08/17 04:55:12;;;;;;;22.00;13.10;;;16.00;99.90;;;;;;5034455;28;20611;-80
2021/08/17 04:57:58;;;;;;;20.50;13.27;;;16.00;99.90;;;;;;5034219;28;20239;-80
2021/08/17 05:00:26;;;;;;;18.40;12.37;;;16.10;99.90;;;;;;5052046;28;20564;-80
2021/08/17 05:02:52;;;;;;;22.30;14.50;;;16.10;99.90;;;;;;5053465;28;20568;-79
2021/08/17 05:05:18;;;;;;;17.70;12.70;;;16.20;99.90;;;;;;5057656;28;20627;-80
2021/08/17 05:07:44;;;;;;;20.03;13.63;;;16.20;99.90;;;;;;5057063;28;20611;-81
2021/08/17 05:10:15;;;;;;;21.53;12.47;;;16.20;99.90;;;;;;5042048;28;20567;-80
2021/08/17 05:12:41;;;;;;;18.63;12.70;;;16.20;99.90;;;;;;5066804;28;20574;-80
2021/08/17 05:15:09;;;;;;;22.83;13.30;;;16.20;99.90;;;;;;5048460;28;20652;-79
2021/08/17 05:17:35;;;;;;;23.10;12.37;;;16.20;99.90;;;;;;5040979;28;20579;-81
2021/08/17 05:20:01;;;;;;;22.30;13.57;;;16.20;99.90;;;;;;5067302;28;20621;-80
2021/08/17 05:22:27;;;;;;;24.17;12.93;;;16.30;99.90;;;;;;5061027;28;21090;-80
2021/08/17 05:24:52;;;;;;;20.40;12.57;;;16.30;99.90;;;;;;5057847;28;20653;-80
2021/08/17 05:27:18;;;;;;;17.73;12.13;;;16.30;99.90;;;;;;5058432;28;20164;-80
2021/08/17 05:29:44;;;;;;;20.07;12.53;;;16.40;99.90;;;;;;5042687;28;20165;-80
2021/08/17 05:32:10;;;;;;;22.03;12.47;;;16.40;99.90;;;;;;5023837;28;20554;-80
2021/08/17 05:34:36;;;;;;;20.50;11.87;;;16.50;99.90;;;;;;5057517;28;20595;-80
2021/08/17 05:37:02;;;;;;;19.27;12.30;;;16.50;99.90;;;;;;5058105;28;20631;-80
2021/08/17 05:39:28;;;;;;;19.87;12.77;;;16.60;99.90;;;;;;5058057;28;20575;-79
2021/08/17 05:41:53;;;;;;;19.20;12.10;;;16.60;99.90;;;;;;5058465;28;20563;-80
2021/08/17 05:44:19;;;;;;;19.30;12.90;;;16.60;99.90;;;;;;5069627;28;20576;-80
2021/08/17 05:46:45;;;;;;;19.77;12.93;;;16.70;99.90;;;;;;5038681;28;20211;-79
2021/08/17 05:49:13;;;;;;;18.47;12.33;;;16.70;99.90;;;;;;5050121;28;20196;-80
2021/08/17 05:51:39;;;;;;;22.90;12.47;;;16.80;99.90;;;;;;5072688;28;20587;-80
2021/08/17 05:54:04;;;;;;;21.50;13.63;;;16.80;99.90;;;;;;5044494;28;20559;-78
2021/08/17 05:56:32;;;;;;;21.00;12.97;;;16.90;99.90;;;;;;5064962;28;20193;-77
2021/08/17 05:58:58;;;;;;;21.43;12.83;;;16.90;99.90;;;;;;5059044;28;20176;-77
2021/08/17 06:01:24;;;;;;;21.50;13.07;;;17.00;99.90;;;;;;5058453;28;20564;-78
2021/08/17 06:03:50;;;;;;;19.33;13.17;;;17.00;99.90;;;;;;5057659;28;20636;-78
2021/08/17 06:06:15;;;;;;;19.97;13.00;;;17.10;99.90;;;;;;5039255;28;20244;-79
2021/08/17 06:08:41;;;;;;;19.77;12.20;;;17.20;99.90;;;;;;5057646;28;20567;-78
2021/08/17 06:11:07;;;;;;;21.37;14.13;;;17.30;99.90;;;;;;5057341;28;20188;-79
2021/08/17 06:13:33;;;;;;;18.60;13.23;;;17.40;99.90;;;;;;5057660;28;20566;-78
2021/08/17 06:15:59;;;;;;;20.57;13.40;;;17.50;99.90;;;;;;5039089;28;20231;-78
2021/08/17 06:18:25;;;;;;;19.97;13.40;;;17.70;99.90;;;;;;5057288;28;21203;-77
2021/08/17 06:20:51;;;;;;;20.77;12.23;;;17.90;99.90;;;;;;5057132;28;20599;-77
2021/08/17 06:23:17;;;;;;;18.27;12.90;;;18.10;99.90;;;;;;5054754;28;20533;-77
2021/08/17 06:25:42;;;;;;;19.27;12.77;;;18.30;99.90;;;;;;5020079;28;20209;-77
2021/08/17 06:28:10;;;;;;;21.50;13.40;;;18.50;99.90;;;;;;5037497;28;20579;-78
2021/08/17 06:30:36;;;;;;;21.80;13.30;;;18.70;99.90;;;;;;5054536;28;20177;-77
2021/08/17 06:33:03;;;;;;;22.53;13.30;;;18.80;99.90;;;;;;5056242;28;20931;-78
2021/08/17 06:35:29;;;;;;;17.30;12.20;;;18.90;99.90;;;;;;5053913;28;20625;-77
2021/08/17 06:37:54;;;;;;;18.70;12.10;;;19.10;99.90;;;;;;5053652;28;20666;-78
2021/08/17 06:40:20;;;;;;;17.67;12.00;;;19.40;99.90;;;;;;5036391;28;20648;-79
2021/08/17 06:42:46;;;;;;;18.70;13.90;;;19.70;99.90;;;;;;5036194;28;20226;-78
2021/08/17 06:45:13;;;;;;;17.57;12.40;;;20.20;99.90;;;;;;5053725;28;21198;-77
2021/08/17 06:47:45;;;;;;;15.07;12.70;;;20.90;99.90;;;;;;5035424;28;20583;-78
2021/08/17 06:50:11;;;;;;;16.10;10.87;;;21.60;99.90;;;;;;5035613;28;20955;-78
2021/08/17 06:52:37;;;;;;;16.43;12.47;;;22.40;99.90;;;;;;5053674;28;20650;-78
2021/08/17 06:55:03;;;;;;;25.70;12.80;;;23.00;99.90;;;;;;5053048;28;20219;-78
2021/08/17 06:57:29;;;;;;;16.40;11.93;;;23.40;99.90;;;;;;5053660;28;20189;-76
2021/08/17 06:59:54;;;;;;;14.00;10.93;;;23.50;99.90;;;;;;5053557;28;20568;-77
2021/08/17 07:02:20;;;;;;;17.80;11.60;;;23.60;99.90;;;;;;5019276;28;20704;-77
2021/08/17 07:04:46;;;;;;;16.63;12.37;;;23.60;99.90;;;;;;5053140;28;20255;-76
2021/08/17 07:07:11;;;;;;;15.33;12.10;;;23.50;99.90;;;;;;5053550;28;20189;-77
2021/08/17 07:09:37;;;;;;;14.90;10.30;;;23.40;99.90;;;;;;5036486;28;20180;-76
2021/08/17 07:12:03;;;;;;;14.50;11.17;;;23.20;99.90;;;;;;5054824;28;20268;-76
2021/08/17 07:14:29;;;;;;;16.67;9.87;;;23.10;99.90;;;;;;5035384;28;20161;-76
2021/08/17 07:16:55;;;;;;;16.27;11.73;;;23.10;99.90;;;;;;5053214;28;20615;-75
2021/08/17 07:19:20;;;;;;;14.67;11.07;;;22.90;99.90;;;;;;5037803;28;20184;-77
2021/08/17 07:21:46;;;;;;;17.93;11.30;;;22.80;99.90;;;;;;5053801;28;20678;-77
2021/08/17 07:24:12;;;;;;;19.60;12.27;;;22.70;99.90;;;;;;5035129;28;20248;-77
2021/08/17 07:26:38;;;;;;;17.73;11.80;;;22.60;99.90;;;;;;5034965;28;20200;-78
2021/08/17 07:29:03;;;;;;;14.87;11.60;;;22.50;99.90;;;;;;5053100;28;20180;-78
2021/08/17 07:31:30;;;;;;;14.50;11.80;;;22.40;99.90;;;;;;5052648;28;20204;-78
2021/08/17 07:33:57;;;;;;;15.07;11.23;;;22.40;99.90;;;;;;5052525;28;20547;-77
2021/08/17 07:36:22;;;;;;;13.63;11.40;;;22.40;99.90;;;;;;5038470;23;20730;-85
2021/08/17 07:38:48;;;;;;;12.00;9.80;;;22.50;99.90;;;;;;5005206;28;20580;-85
2021/08/17 07:41:14;;;;;;;14.67;10.30;;;22.80;99.90;;;;;;5000265;28;21007;-85
2021/08/17 07:43:40;;;;;;;12.80;11.00;;;23.00;99.90;;;;;;5021987;28;20166;-85
2021/08/17 07:46:05;;;;;;;15.77;10.40;;;23.00;99.90;;;;;;5023064;28;20212;-85
2021/08/17 07:48:31;;;;;;;14.63;10.17;;;23.00;99.90;;;;;;5034992;28;20647;-85
2021/08/17 07:50:57;;;;;;;17.63;11.27;;;22.90;99.90;;;;;;5053312;28;20750;-85
2021/08/17 07:53:23;;;;;;;13.30;10.53;;;22.70;99.90;;;;;;5052556;28;20290;-85
2021/08/17 07:55:49;;;;;;;14.67;11.10;;;22.60;99.90;;;;;;5052390;28;20716;-84
2021/08/17 07:58:15;;;;;;;15.70;11.30;;;22.40;99.90;;;;;;5052677;28;20172;-84
2021/08/17 08:00:40;;;;;;;14.33;10.03;;;22.20;99.90;;;;;;5050436;28;20287;-84
2021/08/17 08:03:06;;;;;;;15.57;10.37;;;22.10;99.90;;;;;;4998340;28;20250;-83
2021/08/17 08:05:32;;;;;;;14.00;10.77;;;22.00;99.90;;;;;;5032117;28;20209;-84
2021/08/17 08:07:57;;;;;;;14.80;11.60;;;22.00;99.90;;;;;;5032454;28;20176;-83
2021/08/17 08:10:23;;;;;;;13.83;10.20;;;22.10;99.90;;;;;;5036581;28;20165;-83
2021/08/17 08:12:49;;;;;;;14.27;10.77;;;22.40;99.90;;;;;;5033706;28;20212;-83
2021/08/17 08:15:15;;;;;;;16.63;10.80;;;22.60;99.90;;;;;;5031716;28;20208;-83
2021/08/17 08:17:40;;;;;;;16.83;12.23;;;23.00;99.90;;;;;;5014556;28;20177;-83
2021/08/17 08:20:07;;;;;;;12.53;10.17;;;23.30;99.90;;;;;;5032116;28;20205;-83
2021/08/17 08:22:33;;;;;;;12.73;9.77;;;23.90;99.90;;;;;;5030982;28;20657;-83
2021/08/17 08:24:59;;;;;;;12.43;9.17;;;24.50;99.90;;;;;;5031583;28;20727;-84
2021/08/17 08:27:25;;;;;;;15.60;9.60;;;25.10;99.90;;;;;;5014336;28;20267;-83
2021/08/17 08:29:50;;;;;;;13.00;11.10;;;25.50;99.90;;;;;;5031514;28;20165;-87
2021/08/17 08:32:16;;;;;;;14.83;10.37;;;25.80;99.90;;;;;;5031786;28;20664;-85
2021/08/17 08:34:42;;;;;;;14.03;9.33;;;26.10;99.90;;;;;;5013731;28;20169;-84
2021/08/17 08:37:08;;;;;;;11.00;9.80;;;26.40;99.90;;;;;;5030450;28;20208;-83
2021/08/17 08:39:33;;;;;;;11.50;9.53;;;26.50;99.90;;;;;;5013920;28;20174;-84
2021/08/17 08:42:00;;;;;;;11.17;9.63;;;26.30;99.90;;;;;;5031827;28;20170;-84
2021/08/17 08:44:26;;;;;;;11.03;9.60;;;26.20;99.90;;;;;;5031400;28;20167;-84
2021/08/17 08:46:53;;;;;;;11.30;9.00;;;26.10;99.90;;;;;;5031480;28;20628;-83
2021/08/17 08:49:20;;;;;;;13.60;10.00;;;26.10;99.90;;;;;;5035474;28;20562;-84
2021/08/17 08:51:46;;;;;;;10.90;9.43;;;26.10;99.90;;;;;;5014436;28;20663;-84
2021/08/17 08:54:11;;;;;;;12.47;8.67;;;26.20;99.90;;;;;;5013888;28;20675;-85
2021/08/17 08:56:39;;;;;;;11.00;8.60;;;26.30;99.90;;;;;;5014419;28;20252;-85
2021/08/17 08:59:05;;;;;;;12.60;8.97;;;26.60;99.90;;;;;;5021244;28;20584;-83
2021/08/17 09:01:31;;;;;;;13.00;8.23;;;26.70;99.90;;;;;;5022013;28;20169;-83
2021/08/17 09:03:57;;;;;;;10.47;8.60;;;26.80;99.90;;;;;;5034835;28;20241;-84
2021/08/17 09:06:26;;;;;;;11.20;9.30;;;26.80;99.90;;;;;;5034840;28;20661;-84
2021/08/17 09:09:12;;;;;;;11.57;8.67;;;26.70;99.90;;;;;;5015562;28;20973;-84
2021/08/17 09:11:44;;;;;;;10.17;8.27;;;26.60;99.90;;;;;;5032133;28;20633;-82
2021/08/17 09:14:24;;;;;;;13.00;8.17;;;26.50;99.90;;;;;;5031314;28;20569;-83
2021/08/17 09:16:56;;;;;;;11.63;8.77;;;26.50;99.90;;;;;;5013508;28;20940;-83
2021/08/17 09:19:35;;;;;;;14.37;9.00;;;26.50;99.90;;;;;;4997320;28;20608;-83
2021/08/17 09:22:12;;;;;;;10.90;8.93;;;26.50;99.90;;;;;;5014037;28;20991;-84
2021/08/17 09:24:38;;;;;;;14.40;10.03;;;26.40;99.90;;;;;;5035379;28;20587;-83
2021/08/17 09:27:07;;;;;;;10.97;9.20;;;26.30;99.90;;;;;;5031183;28;20606;-84
2021/08/17 09:29:36;;;;;;;11.93;10.50;;;26.00;99.90;;;;;;5013621;28;20177;-85
2021/08/17 09:32:10;;;;;;;10.40;8.97;;;25.70;99.90;;;;;;5013953;28;20655;-85
2021/08/17 09:34:37;;;;;;;11.17;8.47;;;25.50;99.90;;;;;;5031007;28;20600;-85
2021/08/17 09:37:07;;;;;;;11.23;8.23;;;25.40;99.90;;;;;;5031042;28;20610;-84
2021/08/17 09:39:39;;;;;;;12.03;9.60;;;25.20;99.90;;;;;;5031308;28;20567;-85
2021/08/17 09:42:15;;;;;;;12.43;9.70;;;25.10;99.90;;;;;;5031381;28;20567;-84
2021/08/17 09:44:43;;;;;;;13.00;8.63;;;25.00;99.90;;;;;;5031303;28;20579;-84
2021/08/17 09:47:10;;;;;;;11.70;9.40;;;24.90;99.90;;;;;;5014155;28;20609;-83
2021/08/17 09:49:36;;;;;;;12.00;9.10;;;24.80;99.90;;;;;;5031492;28;20576;-84
2021/08/17 09:52:11;;;;;;;11.37;8.93;;;24.70;99.90;;;;;;5013668;28;21146;-84
2021/08/17 09:54:42;;;;;;;11.70;8.53;;;24.60;99.90;;;;;;5013216;28;20571;-85
2021/08/17 09:57:09;;;;;;;12.50;9.23;;;24.50;99.90;;;;;;5031654;28;20986;-84
2021/08/17 09:59:37;;;;;;;16.03;8.97;;;24.40;99.90;;;;;;5017644;28;20591;-85
2021/08/17 10:02:04;;;;;;;12.27;9.23;;;24.30;99.90;;;;;;5021614;28;20569;-84
2021/08/17 10:04:29;;;;;;;10.13;8.23;;;24.20;99.90;;;;;;5034703;28;20596;-84
2021/08/17 10:06:58;;;;;;;12.17;9.23;;;24.10;99.90;;;;;;5034889;28;20654;-84
2021/08/17 10:09:25;;;;;;;12.70;9.07;;;24.00;99.90;;;;;;5034757;28;20509;-84
2021/08/17 10:11:51;;;;;;;13.03;9.10;;;23.90;99.90;;;;;;5017178;28;20599;-85
2021/08/17 10:14:17;;;;;;;11.93;10.30;;;23.80;99.90;;;;;;5017015;28;20639;-84
2021/08/17 10:16:44;;;;;;;12.50;10.30;;;23.80;99.90;;;;;;5033257;28;20644;-86
2021/08/17 10:19:18;;;;;;;12.27;9.13;;;23.70;99.90;;;;;;5017158;28;20265;-86
2021/08/17 10:21:47;;;;;;;14.20;10.70;;;23.60;99.90;;;;;;5000619;28;20568;-85
2021/08/17 10:24:27;;;;;;;12.97;9.60;;;23.50;99.90;;;;;;5034476;28;20573;-86
2021/08/17 10:27:15;;;;;;;11.23;9.50;;;23.50;99.90;;;;;;5034246;28;20635;-85
2021/08/17 10:30:03;;;;;;;13.97;9.80;;;23.20;99.90;;;;;;5034511;28;20671;-85
2021/08/17 10:32:40;;;;;;;10.73;8.53;;;23.20;99.90;;;;;;5034455;28;20610;-85
2021/08/17 10:35:07;;;;;;;12.07;9.70;;;23.10;99.90;;;;;;5016257;28;20921;-85
2021/08/17 10:37:35;;;;;;;11.80;10.03;;;23.10;99.90;;;;;;5018682;28;20634;-85
2021/08/17 10:40:02;;;;;;;14.27;10.53;;;23.10;99.90;;;;;;5036501;28;20571;-85
2021/08/17 10:42:28;;;;;;;11.30;9.67;;;23.10;99.90;;;;;;5034588;28;20663;-84
2021/08/17 10:45:24;;;;;;;11.20;9.03;;;23.10;99.90;;;;;;4998930;28;20620;-85
2021/08/17 10:47:49;;;;;;;10.80;8.30;;;23.10;99.90;;;;;;5033231;28;20596;-85
2021/08/17 10:50:31;;;;;;;10.50;9.40;;;23.00;99.90;;;;;;5033904;28;20680;-85
2021/08/17 10:52:56;;;;;;;11.43;9.83;;;22.90;99.90;;;;;;5016303;28;20165;-85
2021/08/17 10:55:37;;;;;;;11.00;8.63;;;22.90;99.90;;;;;;5016279;28;20673;-85
2021/08/17 10:58:07;;;;;;;10.00;8.90;;;22.80;99.90;;;;;;5035113;28;20571;-86
2021/08/17 11:00:46;;;;;;;11.27;8.70;;;22.70;99.90;;;;;;5017764;28;21193;-86
2021/08/17 11:03:13;;;;;;;15.77;9.37;;;22.50;99.90;;;;;;5018131;28;20604;-84
2021/08/17 11:05:54;;;;;;;12.03;8.67;;;22.50;99.90;;;;;;5055568;28;21305;-83
2021/08/17 11:08:32;;;;;;;11.90;8.10;;;22.40;99.90;;;;;;5039876;28;20603;-83
2021/08/17 11:11:04;;;;;;;9.80;7.60;;;22.40;99.90;;;;;;5041039;28;20614;-85
2021/08/17 11:13:29;;;;;;;12.67;8.47;;;22.40;99.90;;;;;;5035919;28;20567;-85
2021/08/17 11:16:08;;;;;;;8.73;7.20;;;22.40;99.90;;;;;;5058065;28;20626;-85
2021/08/17 11:18:58;;;;;;;10.60;8.20;;;22.30;99.90;;;;;;5053103;28;20169;-85
2021/08/17 11:21:38;;;;;;;15.17;8.20;;;22.30;99.90;;;;;;5012367;28;20570;-84
2021/08/17 11:24:19;;;;;;;10.67;8.17;;;22.30;99.90;;;;;;5013318;28;20914;-85
2021/08/17 11:26:50;;;;;;;10.40;8.20;;;22.20;99.90;;;;;;4995438;28;20675;-84
2021/08/17 11:29:29;;;;;;;13.20;9.47;;;22.20;99.90;;;;;;5013503;28;20566;-84
2021/08/17 11:31:55;;;;;;;11.07;8.80;;;22.10;99.90;;;;;;5012719;28;20802;-83
2021/08/17 11:34:24;;;;;;;11.00;7.33;;;22.00;99.90;;;;;;5011063;28;21112;-83
2021/08/17 11:36:50;;;;;;;15.77;8.40;;;21.90;99.90;;;;;;5026863;28;20737;-83
2021/08/17 11:39:25;;;;;;;9.53;7.67;;;21.80;99.90;;;;;;5052608;28;20621;-82
2021/08/17 11:41:51;;;;;;;11.33;7.47;;;21.70;99.90;;;;;;5052478;28;20590;-83
2021/08/17 11:44:18;;;;;;;10.97;8.20;;;21.60;99.90;;;;;;5052526;28;20552;-86
2021/08/17 11:46:44;;;;;;;9.13;7.63;;;21.50;99.90;;;;;;5052397;28;20726;-86
2021/08/17 11:49:27;;;;;;;10.97;7.53;;;21.40;99.90;;;;;;5052297;28;20616;-84
2021/08/17 11:52:03;;;;;;;8.87;6.73;;;21.30;99.90;;;;;;5057298;28;20630;-83
2021/08/17 11:54:31;;;;;;;7.87;6.80;;;21.20;99.90;;;;;;5051955;28;20565;-83
2021/08/17 11:56:58;;;;;;;11.10;7.07;;;21.20;99.90;;;;;;5051723;28;20613;-84
2021/08/17 11:59:25;;;;;;;10.10;6.90;;;21.10;99.90;;;;;;5051649;28;20575;-85
2021/08/17 12:02:01;;;;;;;9.50;6.00;;;21.00;99.90;;;;;;5001441;28;20580;-84
2021/08/17 12:04:26;;;;;;;10.97;7.27;;;21.00;99.90;;;;;;5051449;28;20571;-85
2021/08/17 12:07:08;;;;;;;9.83;6.77;;;21.00;99.90;;;;;;5052102;28;20630;-85
2021/08/17 12:09:36;;;;;;;7.30;5.77;;;21.00;99.90;;;;;;5051706;28;20188;-85
2021/08/17 12:12:02;;;;;;;8.67;6.90;;;21.00;99.90;;;;;;5052079;28;20571;-85
2021/08/17 12:14:28;;;;;;;10.40;7.07;;;21.00;99.90;;;;;;5053203;28;20560;-85
2021/08/17 12:16:55;;;;;;;9.27;5.50;;;20.90;99.90;;;;;;5017554;28;20641;-86
2021/08/17 12:19:21;;;;;;;8.30;6.43;;;20.90;99.90;;;;;;5051679;28;20858;-85
2021/08/17 12:21:47;;;;;;;8.00;5.50;;;20.90;99.90;;;;;;5051037;28;20564;-85
2021/08/17 12:24:27;;;;;;;12.37;7.53;;;20.90;99.90;;;;;;5033790;28;20582;-85
2021/08/17 12:27:01;;;;;;;10.47;7.70;;;20.90;99.90;;;;;;5033907;28;20207;-84
2021/08/17 12:29:42;;;;;;;8.87;7.40;;;20.90;99.90;;;;;;5056213;28;20587;-85
2021/08/17 12:32:31;;;;;;;7.20;5.87;;;20.90;99.90;;;;;;5052216;28;20923;-86
2021/08/17 12:35:06;;;;;;;10.57;5.33;;;20.90;99.90;;;;;;5051765;28;20567;-85